Time;durP1;ratioP1;P1;durP2;ratioP2;P2;SDS_P1;SDS_P2;PMS_P1;PMS_P2;Temp;Humidity;BMP_temperature;BMP_pressure;BME280_temperature;BME280_humidity;BME280_pressure;Samples;Min_cycle;Max_cycle;Signal;HPM_P1;HPM_P2
2023/05/21 00:02:36;;;;;;;9.73;7.33;;;17.20;94.10;;;;;;4939650;29;20491;-82
2023/05/21 00:05:20;;;;;;;;;;;;;;;;;;;;;
2023/05/21 00:07:58;;;;;;;10.13;7.97;;;17.10;94.30;;;;;;4957961;28;20453;-82
2023/05/21 00:11:01;;;;;;;10.43;7.07;;;17.10;94.60;;;;;;4925372;29;20474;-81
2023/05/21 00:13:47;;;;;;;13.23;8.67;;;17.20;94.40;;;;;;4937533;29;20843;-82
2023/05/21 00:16:50;;;;;;;9.07;7.87;;;17.20;94.40;;;;;;4936889;28;20447;-82
2023/05/21 00:19:34;;;;;;;10.47;7.50;;;17.20;94.40;;;;;;4929032;29;21332;-82
2023/05/21 00:22:05;;;;;;;11.53;8.63;;;17.20;94.30;;;;;;4920113;29;20451;-82
2023/05/21 00:24:45;;;;;;;9.63;7.77;;;17.20;94.50;;;;;;4919204;29;20461;-82
2023/05/21 00:27:38;;;;;;;11.50;7.73;;;17.10;94.60;;;;;;4869080;29;20545;-81
2023/05/21 00:30:18;;;;;;;9.40;8.27;;;17.10;94.70;;;;;;4834228;29;20507;-81
2023/05/21 00:33:21;;;;;;;9.03;6.87;;;17.10;94.70;;;;;;4848187;29;20471;-82
2023/05/21 00:36:22;;;;;;;8.27;6.90;;;17.20;94.90;;;;;;4844082;29;20988;-81
2023/05/21 00:39:39;;;;;;;9.53;7.57;;;17.20;94.70;;;;;;4852821;29;20450;-82
2023/05/21 00:42:49;;;;;;;8.70;7.53;;;17.00;94.90;;;;;;4852971;29;20473;-82
2023/05/21 00:46:11;;;;;;;9.53;7.63;;;17.00;95.10;;;;;;4842902;29;20560;-83
2023/05/21 00:49:07;;;;;;;9.87;7.20;;;16.90;95.30;;;;;;4866949;29;20901;-83
2023/05/21 00:52:00;;;;;;;9.90;8.20;;;16.90;95.40;;;;;;4856479;29;20490;-82
2023/05/21 00:54:31;;;;;;;9.83;7.30;;;16.90;95.40;;;;;;4865005;29;20489;-83
2023/05/21 00:57:21;;;;;;;9.10;7.57;;;17.00;95.50;;;;;;4840486;29;20622;-83
2023/05/21 01:00:17;;;;;;;10.63;7.00;;;16.90;95.50;;;;;;4810379;29;20452;-83
2023/05/21 01:03:08;;;;;;;8.37;7.07;;;16.90;95.70;;;;;;4829306;29;20499;-82
2023/05/21 01:05:43;;;;;;;8.90;7.20;;;16.90;95.80;;;;;;4868335;29;20461;-83
2023/05/21 01:08:45;;;;;;;7.90;7.03;;;16.80;95.70;;;;;;4923046;29;20461;-83
2023/05/21 01:11:55;;;;;;;10.70;7.70;;;16.80;95.90;;;;;;4938863;29;20483;-82
2023/05/21 01:14:27;;;;;;;8.23;7.07;;;16.80;96.00;;;;;;4924745;29;20481;-83
2023/05/21 01:17:19;;;;;;;12.53;6.60;;;16.80;96.40;;;;;;4932891;29;20465;-84
2023/05/21 01:20:41;;;;;;;11.00;7.93;;;16.90;96.00;;;;;;4931863;28;20784;-83
2023/05/21 01:30:32;;;;;;;9.50;6.73;;;16.80;96.30;;;;;;4939420;28;20500;-82
2023/05/21 01:33:37;;;;;;;8.90;7.30;;;16.70;96.30;;;;;;4914765;29;20556;-82
2023/05/21 01:36:34;;;;;;;7.40;6.30;;;16.70;96.50;;;;;;4935477;29;20498;-83
2023/05/21 01:39:14;;;;;;;8.40;7.50;;;16.80;96.40;;;;;;4953319;28;20462;-82
2023/05/21 01:45:51;;;;;;;9.33;7.00;;;16.70;96.60;;;;;;4943069;29;20525;-81
2023/05/21 01:48:45;;;;;;;8.77;7.00;;;16.60;96.70;;;;;;4942138;29;20457;-81
2023/05/21 01:51:49;;;;;;;8.77;7.70;;;16.60;96.90;;;;;;4938518;28;20478;-81
2023/05/21 01:54:46;;;;;;;9.67;7.23;;;16.60;97.10;;;;;;4923297;29;20494;-84
2023/05/21 02:01:23;;;;;;;9.10;7.40;;;16.40;97.30;;;;;;4946820;29;20564;-81
2023/05/21 02:04:33;;;;;;;10.30;7.20;;;16.40;97.40;;;;;;4933302;28;20502;-83
2023/05/21 02:07:06;;;;;;;9.07;6.80;;;16.50;97.50;;;;;;4947179;28;20510;-81
2023/05/21 02:10:01;;;;;;;8.90;6.77;;;16.40;97.40;;;;;;4950241;29;20541;-80
2023/05/21 02:12:56;;;;;;;9.20;7.50;;;16.40;97.60;;;;;;4934167;29;20454;-80
2023/05/21 02:15:44;;;;;;;7.37;6.30;;;16.30;97.60;;;;;;4937231;29;20466;-82
2023/05/21 02:18:28;;;;;;;7.13;6.43;;;16.30;97.70;;;;;;4940743;29;20446;-81
2023/05/21 02:20:57;;;;;;;7.27;6.57;;;16.30;97.90;;;;;;4940337;29;20487;-81
2023/05/21 02:24:00;;;;;;;8.03;6.30;;;16.30;97.90;;;;;;4914254;29;20462;-82
2023/05/21 02:26:37;;;;;;;9.47;6.53;;;16.30;98.00;;;;;;4935567;29;20454;-83
2023/05/21 02:29:37;;;;;;;7.50;6.57;;;16.30;97.90;;;;;;4892134;29;20445;-82
2023/05/21 02:32:36;;;;;;;6.93;6.20;;;16.30;98.00;;;;;;4932672;29;20485;-82
2023/05/21 02:35:31;;;;;;;7.17;6.10;;;16.30;97.90;;;;;;4937848;28;20543;-81
2023/05/21 02:38:51;;;;;;;8.17;6.40;;;16.40;98.00;;;;;;4933677;29;20449;-82
2023/05/21 02:41:47;;;;;;;8.40;6.80;;;16.30;98.00;;;;;;4942187;29;20485;-83
2023/05/21 02:45:15;;;;;;;7.30;6.47;;;16.30;97.90;;;;;;4943139;29;20466;-82
2023/05/21 02:48:04;;;;;;;8.10;5.90;;;16.80;97.60;;;;;;4938204;29;20513;-82
2023/05/21 02:51:02;;;;;;;9.07;7.07;;;16.60;97.10;;;;;;4936536;28;20510;-82
2023/05/21 02:53:39;;;;;;;9.10;6.90;;;16.60;97.20;;;;;;4927067;29;21223;-82
2023/05/21 02:56:25;;;;;;;7.00;6.00;;;17.00;96.70;;;;;;4932635;29;20453;-82
2023/05/21 02:59:11;;;;;;;8.73;6.67;;;16.90;96.40;;;;;;4931126;28;20513;-81
2023/05/21 03:05:05;;;;;;;7.57;6.53;;;16.70;96.60;;;;;;4946262;29;20476;-81
2023/05/21 03:08:01;;;;;;;7.93;6.60;;;16.90;96.60;;;;;;4917736;29;20960;-81
2023/05/21 03:11:11;;;;;;;7.47;6.67;;;16.80;96.60;;;;;;4922725;29;20592;-82
2023/05/21 03:14:23;;;;;;;7.30;6.30;;;16.80;96.90;;;;;;4905135;29;20975;-81
2023/05/21 03:17:04;;;;;;;7.90;6.53;;;16.60;97.10;;;;;;4912689;29;20529;-81
2023/05/21 03:20:15;;;;;;;7.90;6.23;;;16.60;97.40;;;;;;4922660;29;20450;-81
2023/05/21 03:27:05;;;;;;;7.80;6.80;;;16.30;97.70;;;;;;4923717;29;20450;-80
2023/05/21 03:29:46;;;;;;;6.47;5.80;;;16.40;98.20;;;;;;4919791;29;20886;-82
2023/05/21 03:32:23;;;;;;;7.20;5.97;;;16.40;97.80;;;;;;4917808;29;20486;-82
2023/05/21 03:35:13;;;;;;;7.33;6.60;;;16.30;98.00;;;;;;4933706;29;20508;-80
2023/05/21 03:38:03;;;;;;;9.03;7.40;;;16.50;97.80;;;;;;4921290;29;20466;-83
2023/05/21 03:40:31;;;;;;;9.20;6.40;;;16.80;97.40;;;;;;4939548;29;20477;-81
2023/05/21 03:43:12;;;;;;;8.77;7.17;;;16.70;97.20;;;;;;4921535;29;20498;-83
2023/05/21 03:45:50;;;;;;;7.60;6.47;;;16.60;97.50;;;;;;4927717;29;20473;-80
2023/05/21 03:48:35;;;;;;;7.73;6.87;;;16.40;97.60;;;;;;4938756;29;20456;-83
2023/05/21 03:51:21;;;;;;;7.67;6.50;;;16.50;98.00;;;;;;4925066;29;20485;-82
2023/05/21 03:54:24;;;;;;;6.60;5.97;;;16.30;97.90;;;;;;4927175;29;20565;-81
2023/05/21 03:57:14;;;;;;;8.73;6.90;;;16.20;98.10;;;;;;4930772;29;20455;-82
2023/05/21 03:59:49;;;;;;;8.50;6.53;;;16.30;98.30;;;;;;4924124;29;20457;-82
2023/05/21 04:02:34;;;;;;;7.70;6.70;;;16.20;98.30;;;;;;4930817;29;20462;-82
2023/05/21 04:05:14;;;;;;;7.83;5.80;;;16.20;98.40;;;;;;4932563;29;20473;-82
2023/05/21 04:08:01;;;;;;;9.17;7.50;;;16.50;98.20;;;;;;4932642;29;20496;-82
2023/05/21 04:10:45;;;;;;;10.10;6.80;;;16.30;98.00;;;;;;4924754;29;20935;-81
2023/05/21 04:13:21;;;;;;;7.50;6.70;;;16.60;97.90;;;;;;4936619;29;20627;-82
2023/05/21 04:15:59;;;;;;;9.40;6.33;;;16.70;97.60;;;;;;4928727;29;20479;-83
2023/05/21 04:18:51;;;;;;;6.77;6.07;;;16.70;97.50;;;;;;4913266;29;20837;-81
2023/05/21 04:21:28;;;;;;;8.80;6.40;;;16.60;97.40;;;;;;4919963;29;20462;-81
2023/05/21 04:24:09;;;;;;;7.57;6.10;;;16.40;97.60;;;;;;4919709;29;21026;-82
2023/05/21 04:26:48;;;;;;;7.90;6.30;;;16.30;97.90;;;;;;4914866;29;20488;-81
2023/05/21 04:29:43;;;;;;;10.10;7.00;;;16.40;98.20;;;;;;4922737;29;20462;-82
2023/05/21 04:32:39;;;;;;;6.80;6.17;;;16.80;97.80;;;;;;4921590;29;21009;-82
2023/05/21 04:35:19;;;;;;;7.63;5.93;;;16.70;97.10;;;;;;4936875;29;20462;-83
2023/05/21 04:38:11;;;;;;;7.70;6.07;;;16.70;97.20;;;;;;4939323;29;20535;-83
2023/05/21 04:41:13;;;;;;;9.00;6.70;;;16.40;97.50;;;;;;4932250;29;20608;-81
2023/05/21 04:43:59;;;;;;;8.07;6.93;;;16.50;98.10;;;;;;4938808;29;20560;-82
2023/05/21 04:46:56;;;;;;;7.50;6.10;;;16.40;98.00;;;;;;4948600;29;20827;-81
2023/05/21 04:49:26;;;;;;;9.00;6.37;;;16.30;98.20;;;;;;4930720;29;20449;-81
2023/05/21 04:51:58;;;;;;;7.57;6.13;;;16.30;98.40;;;;;;4924246;29;20485;-82
2023/05/21 04:54:42;;;;;;;8.17;6.57;;;16.20;98.50;;;;;;4930703;29;20483;-82
2023/05/21 04:57:10;;;;;;;7.47;6.40;;;16.20;98.50;;;;;;4920047;29;20475;-83
2023/05/21 04:59:49;;;;;;;7.23;6.40;;;16.20;98.70;;;;;;4932711;29;20457;-82
2023/05/21 05:02:26;;;;;;;8.70;6.40;;;16.20;98.80;;;;;;4924058;29;20461;-82
2023/05/21 05:05:10;;;;;;;7.30;6.27;;;16.20;98.80;;;;;;4935099;29;20559;-82
2023/05/21 05:08:18;;;;;;;6.67;5.93;;;16.20;98.80;;;;;;4946554;29;20469;-82
2023/05/21 05:10:49;;;;;;;6.83;5.73;;;16.20;98.90;;;;;;4938995;29;20561;-82
2023/05/21 05:13:33;;;;;;;6.73;5.80;;;16.20;99.00;;;;;;4925116;29;20453;-83
2023/05/21 05:16:10;;;;;;;7.00;6.23;;;16.10;99.00;;;;;;4944618;29;20453;-82
2023/05/21 05:19:10;;;;;;;8.97;7.13;;;16.20;99.10;;;;;;4922895;29;20458;-81
2023/05/21 05:21:49;;;;;;;6.83;6.20;;;16.50;99.00;;;;;;4920540;29;20458;-82
2023/05/21 05:25:03;;;;;;;8.73;7.47;;;16.50;98.60;;;;;;4924827;29;20493;-82
2023/05/21 05:28:07;;;;;;;5.90;5.30;;;16.60;98.40;;;;;;4937535;28;20941;-81
2023/05/21 05:34:07;;;;;;;8.27;6.60;;;16.80;98.00;;;;;;4902130;29;20537;-82
2023/05/21 05:43:37;;;;;;;8.77;5.70;;;16.70;98.20;;;;;;4871080;29;20552;-81
2023/05/21 05:46:36;;;;;;;7.30;6.50;;;16.60;98.20;;;;;;4873839;29;20458;-82
2023/05/21 05:49:22;;;;;;;7.00;5.90;;;16.50;98.50;;;;;;4876109;29;20453;-82
2023/05/21 05:52:20;;;;;;;7.00;6.30;;;16.40;98.70;;;;;;4869322;29;21064;-82
2023/05/21 05:55:05;;;;;;;6.73;6.03;;;16.50;98.80;;;;;;4873703;29;20556;-82
2023/05/21 06:02:23;;;;;;;8.30;6.80;;;16.50;98.80;;;;;;4809139;29;20542;-84
2023/05/21 06:05:22;;;;;;;7.37;6.30;;;16.60;98.80;;;;;;4817137;29;20484;-82
2023/05/21 06:08:11;;;;;;;7.40;6.60;;;16.60;98.70;;;;;;4817638;29;20463;-81
2023/05/21 06:11:03;;;;;;;7.67;6.63;;;16.70;98.60;;;;;;4828229;29;20468;-83
2023/05/21 06:13:44;;;;;;;7.23;6.03;;;16.70;98.50;;;;;;4836731;29;20471;-81
2023/05/21 06:16:59;;;;;;;6.53;5.93;;;16.80;98.50;;;;;;4862978;29;20460;-83
2023/05/21 06:20:54;;;;;;;7.00;6.30;;;16.80;98.40;;;;;;4874077;29;20487;-82
2023/05/21 06:23:50;;;;;;;7.53;6.40;;;16.90;98.40;;;;;;4856439;29;20471;-83
2023/05/21 06:26:46;;;;;;;9.90;6.73;;;17.10;98.20;;;;;;4867281;29;20445;-83
2023/05/21 06:29:47;;;;;;;7.60;6.77;;;17.30;97.60;;;;;;4867671;29;20445;-82
2023/05/21 06:32:45;;;;;;;13.70;6.50;;;17.40;97.20;;;;;;4832284;29;20488;-82
2023/05/21 06:39:49;;;;;;;8.97;8.07;;;17.70;96.40;;;;;;4814582;29;20547;-81
2023/05/21 06:43:03;;;;;;;8.63;7.23;;;17.60;96.40;;;;;;4822203;29;20463;-82
2023/05/21 06:45:38;;;;;;;8.83;6.70;;;17.70;96.60;;;;;;4817008;29;20478;-82
2023/05/21 06:52:42;;;;;;;;;;;;;;;;;;;;;
2023/05/21 06:55:52;;;;;;;8.57;7.53;;;18.20;95.50;;;;;;4873515;29;20529;-83
2023/05/21 06:59:22;;;;;;;;;;;;;;;;;;;;;
2023/05/21 07:02:35;;;;;;;7.30;6.60;;;18.40;95.50;;;;;;4876744;29;20476;-82
2023/05/21 07:05:35;;;;;;;7.43;6.73;;;18.50;95.00;;;;;;4879789;29;20487;-82
2023/05/21 07:09:07;;;;;;;7.70;6.90;;;18.50;94.70;;;;;;4904221;29;20459;-83
2023/05/21 07:12:01;;;;;;;8.97;8.07;;;18.60;94.60;;;;;;4918399;29;20536;-83
2023/05/21 07:15:23;;;;;;;7.90;7.10;;;18.90;94.10;;;;;;4995997;23;20496;-81
2023/05/21 07:18:40;;;;;;;8.33;6.63;;;18.90;94.10;;;;;;4878004;29;20528;-82
2023/05/21 07:28:41;;;;;;;8.03;6.80;;;19.80;92.70;;;;;;4861641;29;20511;-82
2023/05/21 07:31:37;;;;;;;7.70;7.00;;;19.80;92.40;;;;;;4897415;29;20537;-82
2023/05/21 07:34:39;;;;;;;8.57;7.10;;;19.70;92.50;;;;;;4888311;29;20462;-82
2023/05/21 07:37:26;;;;;;;7.87;7.17;;;19.50;92.60;;;;;;4882436;29;20468;-83
2023/05/21 07:40:01;;;;;;;7.13;6.40;;;19.40;92.70;;;;;;4880930;29;20723;-83
2023/05/21 07:42:56;;;;;;;7.90;7.10;;;19.40;92.80;;;;;;4885784;29;20467;-83
2023/05/21 07:46:02;;;;;;;8.43;7.60;;;19.50;92.80;;;;;;4901055;29;20475;-83
2023/05/21 07:49:00;;;;;;;9.70;7.50;;;19.50;92.60;;;;;;4905447;29;20465;-83
2023/05/21 07:52:11;;;;;;;9.10;7.67;;;19.50;92.50;;;;;;4929030;29;20485;-82
2023/05/21 07:55:35;;;;;;;7.20;6.50;;;19.70;92.30;;;;;;4895972;29;20459;-82
2023/05/21 07:58:34;;;;;;;8.43;7.47;;;19.60;92.40;;;;;;4890708;29;20463;-82
2023/05/21 08:01:46;;;;;;;8.70;7.80;;;19.70;92.60;;;;;;4863086;29;20441;-82
2023/05/21 08:12:28;;;;;;;8.00;7.20;;;19.40;92.70;;;;;;4900540;29;20490;-81
2023/05/21 08:15:51;;;;;;;9.03;7.27;;;19.50;93.00;;;;;;4924113;28;20558;-83
2023/05/21 08:18:24;;;;;;;8.33;7.50;;;19.80;92.70;;;;;;4915476;29;20458;-82
2023/05/21 08:24:07;;;;;;;7.73;6.93;;;20.20;91.80;;;;;;4857756;29;20478;-82
2023/05/21 08:27:15;;;;;;;7.67;6.83;;;20.50;91.50;;;;;;4851635;29;20476;-83
2023/05/21 08:30:13;;;;;;;7.57;6.87;;;21.20;90.90;;;;;;4868906;29;20836;-82
2023/05/21 08:41:50;;;;;;;8.47;7.60;;;23.10;80.70;;;;;;4856477;29;20936;-83
2023/05/21 08:53:30;;;;;;;;;;;;;;;;;;;;;
2023/05/21 09:12:14;;;;;;;;;;;;;;;;;;;;;
2023/05/21 09:16:05;;;;;;;7.10;6.50;;;26.20;65.80;;;;;;4865763;29;20501;-82
2023/05/21 09:23:21;;;;;;;;;;;;;;;;;;;;;
2023/05/21 09:26:53;;;;;;;7.70;7.10;;;26.50;65.00;;;;;;4972574;28;20437;-82
2023/05/21 09:36:38;;;;;;;6.70;6.20;;;27.50;61.70;;;;;;4996175;23;20488;-83
2023/05/21 09:40:36;;;;;;;7.10;6.50;;;29.80;57.30;;;;;;4964220;28;21000;-84
2023/05/21 09:50:34;;;;;;;7.37;6.67;;;29.20;54.30;;;;;;4988621;28;20479;-83
2023/05/21 10:02:03;;;;;;;6.83;6.33;;;30.70;52.30;;;;;;4995478;28;20454;-82
2023/05/21 10:05:46;;;;;;;;;;;;;;;;;;;;;
2023/05/21 10:09:22;;;;;;;7.10;6.50;;;29.50;53.10;;;;;;4938383;29;20434;-82
2023/05/21 10:17:16;;;;;;;8.97;7.00;;;30.00;52.50;;;;;;4883091;29;20440;-83
2023/05/21 10:28:49;;;;;;;8.20;7.50;;;27.80;56.60;;;;;;4888826;29;20442;-81
2023/05/21 10:32:42;;;;;;;;;;;;;;;;;;;;;
2023/05/21 10:36:19;;;;;;;7.73;7.13;;;28.20;57.00;;;;;;4881955;29;20538;-82
2023/05/21 10:39:51;;;;;;;;;;;;;;;;;;;;;
2023/05/21 10:43:52;;;;;;;8.47;7.67;;;26.90;58.40;;;;;;4837726;29;20454;-84
2023/05/21 10:47:28;;;;;;;8.00;7.30;;;26.90;59.10;;;;;;4854128;29;20458;-83
2023/05/21 10:51:05;;;;;;;8.30;7.50;;;27.90;57.50;;;;;;4838636;29;20531;-83
2023/05/21 10:54:47;;;;;;;7.20;6.50;;;27.80;57.40;;;;;;4867881;29;20477;-83
2023/05/21 10:58:27;;;;;;;8.80;8.00;;;27.90;57.50;;;;;;4962685;28;20473;-83
2023/05/21 11:09:20;;;;;;;9.70;8.90;;;30.20;54.20;;;;;;4939557;29;20528;-83
2023/05/21 11:12:18;;;;;;;7.50;6.90;;;29.20;54.50;;;;;;4897047;29;20501;-82
2023/05/21 11:19:53;;;;;;;;;;;;;;;;;;;;;
2023/05/21 11:23:24;;;;;;;8.50;7.80;;;28.60;55.80;;;;;;4901849;29;20502;-83
2023/05/21 11:30:15;;;;;;;;;;;;;;;;;;;;;
2023/05/21 11:44:51;;;;;;;8.33;7.63;;;30.70;52.70;;;;;;4787945;29;20511;-83
2023/05/21 11:56:45;;;;;;;;;;;;;;;;;;;;;
2023/05/21 12:04:15;;;;;;;8.80;7.93;;;29.80;55.10;;;;;;4925029;29;20470;-83
2023/05/21 12:08:18;;;;;;;8.50;7.80;;;30.50;53.50;;;;;;4938672;28;20448;-82
2023/05/21 12:11:55;;;;;;;8.03;7.30;;;29.60;54.30;;;;;;5002256;28;20472;-83
2023/05/21 12:15:07;;;;;;;8.87;8.07;;;29.80;54.60;;;;;;4895943;29;20476;-83
2023/05/21 12:18:24;;;;;;;8.60;7.90;;;30.20;53.60;;;;;;4908393;29;20438;-82
2023/05/21 12:21:36;;;;;;;8.23;7.43;;;30.00;53.70;;;;;;4909577;29;20431;-82
2023/05/21 12:28:28;;;;;;;8.73;7.83;;;30.30;53.20;;;;;;992976;26;20781;-82
2023/05/21 12:31:50;;;;;;;8.60;7.80;;;30.90;52.50;;;;;;4975593;28;20439;-83
2023/05/21 12:38:55;;;;;;;8.60;7.13;;;30.50;52.60;;;;;;4979394;28;21045;-83
2023/05/21 12:46:01;;;;;;;8.60;7.20;;;29.80;53.60;;;;;;4903620;29;20451;-81
2023/05/21 12:49:33;;;;;;;9.17;8.30;;;29.70;53.90;;;;;;4905893;29;20430;-82
2023/05/21 12:53:10;;;;;;;9.23;8.43;;;29.20;54.40;;;;;;4895028;29;20546;-81
2023/05/21 12:56:37;;;;;;;8.80;8.00;;;30.40;53.40;;;;;;4938288;28;20589;-83
2023/05/21 13:00:16;;;;;;;;;;;;;;;;;;;;;
2023/05/21 13:03:35;;;;;;;10.17;9.20;;;29.50;55.00;;;;;;4943582;29;20464;-81
2023/05/21 13:07:30;;;;;;;;;;;;;;;;;;;;;
2023/05/21 13:10:42;;;;;;;8.73;8.03;;;29.50;55.10;;;;;;4910803;29;20444;-82
2023/05/21 13:14:00;;;;;;;10.27;9.00;;;28.90;55.80;;;;;;4881019;29;20604;-83
2023/05/21 13:20:36;;;;;;;9.77;8.77;;;29.00;56.00;;;;;;4866598;29;20445;-83
2023/05/21 13:24:06;;;;;;;9.37;8.40;;;29.60;55.80;;;;;;4866353;29;21076;-82
2023/05/21 13:26:55;;;;;;;9.50;8.60;;;29.40;55.70;;;;;;4813066;29;21165;-81
2023/05/21 13:29:52;;;;;;;10.33;8.93;;;28.70;57.10;;;;;;4792468;29;20461;-82
2023/05/21 13:33:05;;;;;;;10.33;9.33;;;28.40;57.90;;;;;;4773414;29;20498;-81
2023/05/21 13:44:24;;;;;;;11.10;10.03;;;29.40;56.90;;;;;;4824411;29;20454;-82
2023/05/21 13:52:00;;;;;;;9.20;8.40;;;29.20;56.90;;;;;;4812698;29;20865;-81
2023/05/21 13:59:34;;;;;;;;;;;;;;;;;;;;;
2023/05/21 14:06:42;;;;;;;9.00;8.20;;;28.60;58.30;;;;;;4762414;30;20457;-82
2023/05/21 14:10:10;;;;;;;10.37;9.47;;;28.50;58.40;;;;;;4763871;29;20900;-83
2023/05/21 14:17:15;;;;;;;9.90;8.90;;;28.50;58.80;;;;;;4827895;29;20585;-83
2023/05/21 14:28:31;;;;;;;9.20;8.30;;;28.20;59.70;;;;;;4831221;29;20451;-83
2023/05/21 14:36:03;;;;;;;9.00;8.10;;;28.60;59.10;;;;;;4836612;29;20473;-84
2023/05/21 14:39:05;;;;;;;9.33;8.53;;;28.40;59.10;;;;;;4878285;29;20508;-81
2023/05/21 14:42:35;;;;;;;8.53;7.80;;;28.30;59.40;;;;;;4896066;29;20452;-83
2023/05/21 14:50:41;;;;;;;11.20;10.20;;;28.40;59.70;;;;;;4807373;29;20535;-81
2023/05/21 15:01:05;;;;;;;9.60;8.60;;;28.40;59.60;;;;;;4890992;28;20527;-83
2023/05/21 15:08:44;;;;;;;9.53;8.70;;;28.40;59.40;;;;;;4909248;29;21024;-83
2023/05/21 15:19:24;;;;;;;10.63;9.63;;;28.20;59.50;;;;;;5022028;28;20426;-82
2023/05/21 15:26:19;;;;;;;10.00;9.10;;;28.20;60.00;;;;;;5023553;28;20458;-82
2023/05/21 15:29:44;;;;;;;10.40;9.50;;;28.60;59.50;;;;;;5005541;28;20438;-83
2023/05/21 15:33:33;;;;;;;;;;;;;;;;;;;;;
2023/05/21 15:37:14;;;;;;;9.60;8.70;;;28.00;60.80;;;;;;4999970;28;20462;-82
2023/05/21 15:44:27;;;;;;;10.17;9.17;;;28.00;61.30;;;;;;5019300;28;20469;-83
2023/05/21 15:51:58;;;;;;;;;;;;;;;;;;;;;
2023/05/21 16:02:57;;;;;;;10.20;9.20;;;27.60;62.70;;;;;;4860498;29;20422;-83
2023/05/21 16:06:33;;;;;;;;;;;;;;;;;;;;;
2023/05/21 16:09:56;;;;;;;10.17;9.27;;;27.50;63.40;;;;;;4849216;29;20453;-82
2023/05/21 16:14:25;;;;;;;9.63;8.70;;;27.60;63.40;;;;;;4841793;29;20599;-83
2023/05/21 16:33:29;;;;;;;11.37;10.07;;;27.70;64.10;;;;;;4773184;29;21038;-83
2023/05/21 16:53:07;;;;;;;11.40;10.30;;;26.70;78.50;;;;;;4799025;29;20427;-82
2023/05/21 16:55:57;;;;;;;11.20;10.13;;;26.50;77.70;;;;;;4749657;30;20550;-82
2023/05/21 16:59:12;;;;;;;11.60;10.60;;;26.30;81.60;;;;;;4829007;29;20547;-82
2023/05/21 17:13:45;;;;;;;12.50;11.23;;;25.70;92.60;;;;;;4984129;28;20547;-82
2023/05/21 17:21:10;;;;;;;12.07;10.90;;;25.20;95.90;;;;;;4907621;29;20451;-85
2023/05/21 17:24:42;;;;;;;14.87;13.03;;;25.10;97.60;;;;;;4933172;28;20767;-81
2023/05/21 17:28:05;;;;;;;;;;;;;;;;;;;;;
2023/05/21 17:31:56;;;;;;;;;;;;;;;;;;;;;
2023/05/21 17:43:03;;;;;;;13.40;11.03;;;24.40;99.90;;;;;;4809888;29;20479;-81
2023/05/21 17:46:48;;;;;;;;;;;;;;;;;;;;;
2023/05/21 17:50:30;;;;;;;;;;;;;;;;;;;;;
2023/05/21 17:57:31;;;;;;;14.20;12.67;;;24.00;99.90;;;;;;4901021;29;20446;-82
2023/05/21 18:01:21;;;;;;;14.77;13.30;;;23.90;99.90;;;;;;4898541;29;20459;-82
2023/05/21 18:05:17;;;;;;;;;;;;;;;;;;;;;
2023/05/21 18:17:10;;;;;;;;;;;;;;;;;;;;;
2023/05/21 18:24:15;;;;;;;;;;;;;;;;;;;;;
2023/05/21 18:27:06;;;;;;;12.40;11.10;;;24.00;98.90;;;;;;4908481;29;20439;-84
2023/05/21 18:46:54;;;;;;;;;;;;;;;;;;;;;
2023/05/21 18:53:52;;;;;;;12.67;10.93;;;23.50;99.80;;;;;;4961725;28;20494;-82
2023/05/21 18:56:59;;;;;;;;;;;;;;;;;;;;;
2023/05/21 19:00:30;;;;;;;12.00;10.80;;;23.30;99.90;;;;;;4918602;29;20443;-83
2023/05/21 19:07:14;;;;;;;13.43;12.00;;;23.20;99.90;;;;;;4962148;28;20456;-82
2023/05/21 19:18:13;;;;;;;13.73;11.60;;;23.20;99.90;;;;;;4871894;29;20465;-83
2023/05/21 19:25:34;;;;;;;11.30;10.20;;;23.20;98.90;;;;;;4785617;29;20494;-82
2023/05/21 19:32:49;;;;;;;11.30;10.10;;;23.30;97.90;;;;;;4787896;29;20437;-82
2023/05/21 19:40:45;;;;;;;13.97;12.10;;;23.30;97.30;;;;;;4871949;29;20464;-81
2023/05/21 19:43:45;;;;;;;12.90;11.60;;;23.30;97.10;;;;;;4848873;29;20454;-82
2023/05/21 19:47:58;;;;;;;12.47;11.17;;;23.20;97.50;;;;;;4848515;29;20494;-82
2023/05/21 19:55:18;;;;;;;12.00;10.73;;;22.80;98.60;;;;;;4783435;29;20501;-82
2023/05/21 19:58:47;;;;;;;;;;;;;;;;;;;;;
2023/05/21 20:02:20;;;;;;;13.63;11.57;;;22.90;99.00;;;;;;4813341;29;20472;-81
2023/05/21 20:05:39;;;;;;;12.40;11.10;;;22.80;99.40;;;;;;4865740;29;20469;-82
2023/05/21 20:12:43;;;;;;;;;;;;;;;;;;;;;
2023/05/21 20:16:26;;;;;;;13.10;11.50;;;22.50;99.90;;;;;;5074370;23;20495;-82
2023/05/21 20:19:56;;;;;;;11.30;10.10;;;22.50;99.90;;;;;;4965870;28;20515;-82
2023/05/21 20:23:49;;;;;;;11.20;10.10;;;22.60;99.90;;;;;;4899356;29;20861;-83
2023/05/21 20:26:50;;;;;;;9.93;8.93;;;22.60;99.90;;;;;;4816689;29;20501;-82
2023/05/21 20:30:14;;;;;;;11.37;10.27;;;22.50;99.80;;;;;;4855189;29;20537;-83
2023/05/21 20:33:31;;;;;;;;;;;;;;;;;;;;;
2023/05/21 20:37:01;;;;;;;11.67;10.53;;;22.40;99.90;;;;;;4869671;29;20469;-82
2023/05/21 20:40:32;;;;;;;11.53;10.50;;;22.60;99.90;;;;;;4889677;29;20487;-82
2023/05/21 20:43:53;;;;;;;13.30;11.90;;;22.50;99.90;;;;;;4905838;29;20481;-82
2023/05/21 20:47:13;;;;;;;12.80;11.40;;;22.40;99.90;;;;;;4890828;29;20489;-82
2023/05/21 20:50:28;;;;;;;11.97;10.73;;;22.40;99.90;;;;;;4906360;29;20464;-82
2023/05/21 20:54:22;;;;;;;;;;;;;;;;;;;;;
2023/05/21 20:58:07;;;;;;;10.60;9.60;;;22.20;99.90;;;;;;4883187;29;20439;-83
2023/05/21 21:05:02;;;;;;;10.27;9.07;;;22.10;99.90;;;;;;4905390;29;20482;-82
2023/05/21 21:12:01;;;;;;;11.77;10.57;;;22.00;99.90;;;;;;4941450;29;20469;-81
2023/05/21 21:15:31;;;;;;;11.90;10.70;;;22.00;99.90;;;;;;4931839;29;20493;-82
2023/05/21 21:19:05;;;;;;;12.00;10.60;;;22.10;99.90;;;;;;4852532;29;20468;-83
2023/05/21 21:26:30;;;;;;;13.87;11.20;;;22.00;99.90;;;;;;4836544;29;20477;-83
2023/05/21 21:30:03;;;;;;;14.07;12.63;;;22.10;99.90;;;;;;4872489;29;20532;-83
2023/05/21 21:33:36;;;;;;;14.70;12.43;;;22.00;99.90;;;;;;4832961;29;20461;-83
2023/05/21 21:44:55;;;;;;;15.17;12.67;;;21.80;99.90;;;;;;4802303;29;20476;-83
2023/05/21 21:48:02;;;;;;;15.10;12.60;;;21.80;99.90;;;;;;4774006;29;20445;-83
2023/05/21 21:59:51;;;;;;;15.50;13.87;;;21.80;99.90;;;;;;4742393;30;21360;-82
2023/05/21 22:04:01;;;;;;;;;;;;;;;;;;;;;
2023/05/21 22:30:05;;;;;;;;;;;;;;;;;;;;;
2023/05/21 22:33:38;;;;;;;;;;;;;;;;;;;;;
2023/05/21 22:36:46;;;;;;;17.00;14.67;;;21.50;99.90;;;;;;4831513;29;20471;-83
2023/05/21 22:44:06;;;;;;;16.23;14.53;;;21.50;99.90;;;;;;4808906;29;20494;-81
2023/05/21 22:51:21;;;;;;;15.20;13.60;;;21.50;99.90;;;;;;4791816;29;20454;-82
2023/05/21 22:58:14;;;;;;;18.00;15.70;;;21.40;99.90;;;;;;4763034;30;20510;-82
2023/05/21 23:01:07;;;;;;;16.37;14.13;;;21.30;99.90;;;;;;4908086;29;20471;-82
2023/05/21 23:08:51;;;;;;;18.70;14.67;;;21.30;99.90;;;;;;4873054;29;20461;-81
2023/05/21 23:12:16;;;;;;;17.90;15.07;;;21.30;99.90;;;;;;4879769;29;20467;-82
2023/05/21 23:15:51;;;;;;;17.27;15.53;;;21.30;99.90;;;;;;4898463;29;20493;-84
2023/05/21 23:22:39;;;;;;;;;;;;;;;;;;;;;
2023/05/21 23:29:00;;;;;;;18.20;15.93;;;21.10;99.90;;;;;;4921113;29;20466;-83
2023/05/21 23:36:09;;;;;;;;;;;;;;;;;;;;;
2023/05/21 23:47:22;;;;;;;16.37;14.67;;;21.00;99.90;;;;;;4888803;29;21406;-82
2023/05/21 23:50:20;;;;;;;20.60;14.53;;;21.10;99.90;;;;;;4926313;29;20450;-82
2023/05/21 23:57:24;;;;;;;16.90;14.00;;;21.10;99.90;;;;;;4900562;29;20474;-82
